Time;durP1;ratioP1;P1;durP2;ratioP2;P2;SDS_P1;SDS_P2;PMS_P1;PMS_P2;Temp;Humidity;BMP_temperature;BMP_pressure;BME280_temperature;BME280_humidity;BME280_pressure;Samples;Min_cycle;Max_cycle;Signal;HPM_P1;HPM_P2
2023/10/13 00:01:04;;;;;;;96.93;45.67;;;;;;;;;;5061556;28;20044;-76
2023/10/13 00:03:31;;;;;;;98.93;47.97;;;;;;;;;;5071263;28;20044;-76
2023/10/13 00:06:03;;;;;;;78.15;42.75;;;;;;;;;;5071912;28;20182;-76
2023/10/13 00:08:29;;;;;;;107.00;47.65;;;;;;;;;;5035432;28;20056;-77
2023/10/13 00:11:02;;;;;;;103.47;48.15;;;;;;;;;;5053352;28;20049;-77
2023/10/13 00:13:30;;;;;;;86.65;43.05;;;;;;;;;;5062212;28;20098;-77
2023/10/13 00:15:57;;;;;;;119.95;53.45;;;;;;;;;;5078131;28;20408;-76
2023/10/13 00:18:27;;;;;;;91.63;45.95;;;;;;;;;;5093182;28;20514;-76
2023/10/13 00:20:56;;;;;;;80.97;43.85;;;;;;;;;;5093256;28;20098;-76
2023/10/13 00:23:22;;;;;;;89.75;47.10;;;;;;;;;;5082203;28;20059;-76
2023/10/13 00:25:56;;;;;;;74.05;42.13;;;;;;;;;;5071919;28;20107;-77
2023/10/13 00:28:46;;;;;;;61.25;36.90;;;;;;;;;;5083220;28;20056;-76
2023/10/13 00:31:13;;;;;;;70.93;41.95;;;;;;;;;;5079141;28;20048;-76
2023/10/13 00:33:41;;;;;;;77.20;42.25;;;;;;;;;;5072067;28;20509;-76
2023/10/13 00:36:08;;;;;;;69.97;42.50;;;;;;;;;;5078325;28;20545;-76
2023/10/13 00:38:37;;;;;;;62.20;37.25;;;;;;;;;;5071788;28;20116;-76
2023/10/13 00:41:14;;;;;;;69.25;38.28;;;;;;;;;;5071746;28;20533;-76
2023/10/13 00:43:45;;;;;;;67.63;38.60;;;;;;;;;;5070731;28;20070;-76
2023/10/13 00:46:12;;;;;;;;;;;;;;;;;;5087415;28;20049;-76
2023/10/13 00:48:43;;;;;;;59.53;35.70;;;;;;;;;;5078355;28;19926;-76
2023/10/13 00:51:18;;;;;;;69.60;38.83;;;;;;;;;;5072372;28;20079;-76
2023/10/13 00:53:47;;;;;;;52.88;32.28;;;;;;;;;;5084886;28;20085;-77
2023/10/13 00:56:19;;;;;;;52.15;34.25;;;;;;;;;;5077104;28;20077;-76
2023/10/13 00:58:52;;;;;;;64.63;36.72;;;;;;;;;;5071405;28;20044;-76
2023/10/13 01:01:21;;;;;;;66.50;38.85;;;;;;;;;;5072064;28;20494;-76
2023/10/13 01:03:48;;;;;;;56.22;35.58;;;;;;;;;;5072406;28;20631;-76
2023/10/13 01:06:19;;;;;;;63.97;39.38;;;;;;;;;;5072802;28;20362;-76
2023/10/13 01:08:51;;;;;;;68.90;39.38;;;;;;;;;;5080535;28;20055;-76
2023/10/13 01:11:18;;;;;;;74.13;40.83;;;;;;;;;;5094799;28;20040;-76
2023/10/13 01:13:47;;;;;;;65.82;39.30;;;;;;;;;;5085572;28;20127;-76
2023/10/13 01:16:13;;;;;;;58.67;37.17;;;;;;;;;;5076036;28;20567;-76
2023/10/13 01:18:47;;;;;;;78.30;41.03;;;;;;;;;;5068362;28;20049;-76
2023/10/13 01:21:15;;;;;;;66.70;40.10;;;;;;;;;;5055999;28;20563;-76
2023/10/13 01:23:43;;;;;;;60.95;38.50;;;;;;;;;;5074450;28;20048;-76
2023/10/13 01:26:09;;;;;;;64.15;39.65;;;;;;;;;;5076042;28;20119;-76
2023/10/13 01:28:44;;;;;;;65.20;38.88;;;;;;;;;;5080166;28;20490;-76
2023/10/13 01:31:12;;;;;;;64.03;37.40;;;;;;;;;;5075472;28;20066;-77
2023/10/13 01:33:41;;;;;;;73.30;42.53;;;;;;;;;;5077991;28;20056;-77
2023/10/13 01:36:07;;;;;;;69.07;40.67;;;;;;;;;;5076153;28;20421;-77
2023/10/13 01:38:35;;;;;;;72.72;39.92;;;;;;;;;;5079117;28;20395;-77
2023/10/13 01:41:04;;;;;;;69.97;40.35;;;;;;;;;;5076180;28;20055;-77
2023/10/13 01:43:30;;;;;;;64.07;39.47;;;;;;;;;;5085628;28;20489;-77
2023/10/13 01:45:56;;;;;;;68.68;40.13;;;;;;;;;;5082496;28;20044;-77
2023/10/13 01:48:22;;;;;;;77.55;43.17;;;;;;;;;;5081960;28;20045;-77
2023/10/13 01:50:55;;;;;;;70.72;40.50;;;;;;;;;;5073823;28;20044;-76
2023/10/13 01:53:22;;;;;;;67.88;38.63;;;;;;;;;;5078109;28;20048;-77
2023/10/13 01:55:50;;;;;;;66.63;37.28;;;;;;;;;;5082437;28;20098;-76
2023/10/13 01:58:16;;;;;;;69.25;39.45;;;;;;;;;;5074305;28;20044;-76
2023/10/13 02:00:49;;;;;;;59.95;38.05;;;;;;;;;;5055666;28;20048;-76
2023/10/13 02:03:21;;;;;;;71.68;41.35;;;;;;;;;;5074479;28;20044;-77
2023/10/13 02:05:48;;;;;;;73.35;37.83;;;;;;;;;;5074747;28;20044;-77
2023/10/13 02:08:22;;;;;;;68.18;39.70;;;;;;;;;;5074783;28;20545;-77
2023/10/13 02:10:48;;;;;;;70.85;39.28;;;;;;;;;;5072824;28;20057;-77
2023/10/13 02:13:17;;;;;;;64.85;38.00;;;;;;;;;;5073981;28;20106;-77
2023/10/13 02:15:56;;;;;;;55.60;35.95;;;;;;;;;;5072976;28;20056;-77
2023/10/13 02:18:33;;;;;;;60.55;37.92;;;;;;;;;;5075344;28;20496;-76
2023/10/13 02:21:04;;;;;;;63.22;37.42;;;;;;;;;;5075272;28;20060;-76
2023/10/13 02:23:31;;;;;;;66.47;38.45;;;;;;;;;;5075063;28;20033;-77
2023/10/13 02:26:10;;;;;;;59.10;36.60;;;;;;;;;;5074285;28;20485;-76
2023/10/13 02:28:36;;;;;;;58.67;35.83;;;;;;;;;;5074923;28;20498;-76
2023/10/13 02:31:03;;;;;;;57.70;35.42;;;;;;;;;;5074292;28;20093;-76
2023/10/13 02:33:29;;;;;;;58.03;33.90;;;;;;;;;;5074828;28;20048;-76
2023/10/13 02:35:56;;;;;;;62.97;35.58;;;;;;;;;;5073881;28;20044;-76
2023/10/13 02:41:10;;;;;;;56.55;32.92;;;;;;;;;;5074435;28;20502;-76
2023/10/13 02:43:36;;;;;;;52.88;33.15;;;;;;;;;;5077806;28;20037;-77
2023/10/13 02:46:03;;;;;;;60.35;33.90;;;;;;;;;;5085093;28;20036;-77
2023/10/13 02:48:45;;;;;;;52.85;33.83;;;;;;;;;;5093249;28;20400;-76
2023/10/13 02:51:15;;;;;;;57.38;33.85;;;;;;;;;;5071588;28;20040;-77
2023/10/13 02:53:52;;;;;;;53.38;33.15;;;;;;;;;;5074160;28;20499;-77
2023/10/13 02:56:22;;;;;;;50.20;33.28;;;;;;;;;;5081025;28;20044;-76
2023/10/13 02:59:05;;;;;;;54.17;33.42;;;;;;;;;;5072872;28;20071;-77
2023/10/13 03:01:35;;;;;;;49.83;30.80;;;;;;;;;;5073548;28;20055;-76
2023/10/13 03:04:08;;;;;;;51.30;31.63;;;;;;;;;;5073026;28;20044;-76
2023/10/13 03:06:34;;;;;;;48.88;30.35;;;;;;;;;;5089536;28;20552;-77
2023/10/13 03:09:14;;;;;;;50.28;32.42;;;;;;;;;;5079983;28;20036;-76
2023/10/13 03:11:48;;;;;;;52.25;32.33;;;;;;;;;;5087711;28;20047;-77
2023/10/13 03:14:23;;;;;;;49.47;29.90;;;;;;;;;;5072129;28;20052;-77
2023/10/13 03:17:04;;;;;;;52.63;30.67;;;;;;;;;;5090263;28;20382;-77
2023/10/13 03:19:33;;;;;;;46.42;30.27;;;;;;;;;;5081592;28;20484;-76
2023/10/13 03:22:09;;;;;;;46.45;29.38;;;;;;;;;;5085343;28;20048;-77
2023/10/13 03:24:35;;;;;;;48.85;30.50;;;;;;;;;;5075594;28;20048;-76
2023/10/13 03:27:12;;;;;;;44.75;29.20;;;;;;;;;;5085758;28;20071;-77
2023/10/13 03:29:45;;;;;;;46.83;28.48;;;;;;;;;;5076525;28;20075;-77
2023/10/13 03:32:12;;;;;;;41.60;26.58;;;;;;;;;;5082962;28;20076;-77
2023/10/13 03:35:12;;;;;;;44.05;27.50;;;;;;;;;;5085765;28;20055;-77
2023/10/13 03:37:38;;;;;;;43.92;27.55;;;;;;;;;;5074216;28;20513;-77
2023/10/13 03:40:33;;;;;;;39.40;26.02;;;;;;;;;;5081763;28;20178;-76
2023/10/13 03:45:28;;;;;;;44.95;27.70;;;;;;;;;;5078028;28;20093;-76
2023/10/13 03:47:54;;;;;;;39.92;27.08;;;;;;;;;;5080573;28;20044;-76
2023/10/13 03:50:31;;;;;;;44.40;27.63;;;;;;;;;;5073378;28;20513;-76
2023/10/13 03:53:00;;;;;;;51.08;30.92;;;;;;;;;;5076161;28;20111;-76
2023/10/13 03:55:29;;;;;;;51.03;28.70;;;;;;;;;;5077140;28;20078;-77
2023/10/13 03:57:55;;;;;;;49.88;30.42;;;;;;;;;;5060973;28;20043;-76
2023/10/13 04:00:27;;;;;;;57.20;31.38;;;;;;;;;;5072476;28;20409;-76
2023/10/13 04:03:06;;;;;;;42.88;29.58;;;;;;;;;;5070181;28;20040;-76
2023/10/13 04:05:46;;;;;;;45.08;29.33;;;;;;;;;;5070275;28;20110;-76
2023/10/13 04:16:14;;;;;;;45.88;28.42;;;;;;;;;;5072026;28;20413;-76
2023/10/13 04:21:55;;;;;;;;;;;;;;;;;;5073213;28;20052;-76
2023/10/13 04:24:23;;;;;;;44.33;28.73;;;;;;;;;;5072807;28;19927;-76
2023/10/13 04:32:28;;;;;;;41.97;28.27;;;;;;;;;;5072952;28;20481;-76
2023/10/13 04:35:08;;;;;;;39.15;27.13;;;;;;;;;;5074426;28;20055;-76
2023/10/13 04:37:48;;;;;;;43.63;28.58;;;;;;;;;;5084890;28;20124;-76
2023/10/13 04:40:17;;;;;;;41.05;28.63;;;;;;;;;;5084253;28;20493;-76
2023/10/13 04:43:04;;;;;;;37.28;26.45;;;;;;;;;;5092348;28;20048;-76
2023/10/13 04:50:47;;;;;;;41.72;27.25;;;;;;;;;;5076739;28;20043;-77
2023/10/13 04:59:15;;;;;;;41.30;27.08;;;;;;;;;;5090327;28;20076;-76
2023/10/13 05:45:40;;;;;;;25.38;17.95;;;;;;;;;;4973477;28;20043;-77
2023/10/13 05:48:13;;;;;;;22.55;17.55;;;;;;;;;;4967714;28;20052;-76
2023/10/13 06:29:07;;;;;;;12.95;8.98;;;;;;;;;;5072616;28;20052;-76
2023/10/13 06:31:35;;;;;;;13.90;9.93;;;;;;;;;;5071945;28;20133;-77
2023/10/13 06:34:03;;;;;;;13.48;10.00;;;;;;;;;;5071413;28;20052;-76
2023/10/13 06:36:29;;;;;;;11.98;8.40;;;;;;;;;;5071530;28;20048;-77
2023/10/13 06:38:56;;;;;;;11.48;8.32;;;;;;;;;;5072037;28;20044;-77
2023/10/13 06:41:30;;;;;;;11.75;7.97;;;;;;;;;;5072008;28;20049;-77
2023/10/13 06:43:59;;;;;;;12.77;8.00;;;;;;;;;;5071633;28;20052;-77
2023/10/13 06:46:28;;;;;;;14.27;8.73;;;;;;;;;;5070399;28;20451;-77
2023/10/13 06:48:54;;;;;;;11.95;8.90;;;;;;;;;;5077427;28;20194;-76
2023/10/13 06:51:25;;;;;;;16.13;10.38;;;;;;;;;;5071857;28;20049;-76
2023/10/13 06:53:56;;;;;;;13.35;9.43;;;;;;;;;;5071112;28;20052;-77
2023/10/13 06:56:26;;;;;;;13.88;8.88;;;;;;;;;;5073456;28;20044;-76
2023/10/13 06:58:59;;;;;;;13.35;9.07;;;;;;;;;;5074067;28;20048;-76
2023/10/13 07:01:25;;;;;;;11.93;8.75;;;;;;;;;;5073669;28;20113;-78
2023/10/13 07:03:55;;;;;;;13.88;8.63;;;;;;;;;;5066591;28;20052;-77
2023/10/13 07:06:21;;;;;;;15.63;8.73;;;;;;;;;;5073328;28;20040;-78
2023/10/13 07:08:54;;;;;;;10.55;6.95;;;;;;;;;;5071578;28;20449;-77
2023/10/13 07:11:34;;;;;;;13.20;7.53;;;;;;;;;;5070876;28;20042;-78
2023/10/13 07:14:09;;;;;;;13.93;7.80;;;;;;;;;;5071648;28;20124;-77
2023/10/13 07:16:36;;;;;;;14.20;7.45;;;;;;;;;;5072170;28;20056;-77
2023/10/13 07:19:05;;;;;;;14.32;7.55;;;;;;;;;;5070008;28;20131;-78
2023/10/13 07:21:33;;;;;;;14.88;6.40;;;;;;;;;;5071388;28;20052;-77
2023/10/13 07:24:08;;;;;;;11.60;6.32;;;;;;;;;;5072160;28;20086;-77
2023/10/13 07:26:42;;;;;;;12.85;5.85;;;;;;;;;;5058759;28;20128;-77
2023/10/13 07:29:09;;;;;;;11.30;5.80;;;;;;;;;;5062620;28;20044;-77
2023/10/13 07:31:37;;;;;;;12.90;5.28;;;;;;;;;;5070450;28;20123;-77
2023/10/13 07:34:12;;;;;;;11.70;5.22;;;;;;;;;;5072592;28;20091;-77
2023/10/13 07:36:43;;;;;;;13.63;5.90;;;;;;;;;;5070683;28;20037;-77
2023/10/13 07:39:23;;;;;;;13.63;6.10;;;;;;;;;;5070785;28;20054;-77
2023/10/13 07:42:22;;;;;;;13.27;5.90;;;;;;;;;;5055741;28;20068;-77
2023/10/13 07:44:45;;;;;;;10.30;5.28;;;;;;;;;;5057880;28;20050;-77
2023/10/13 07:47:14;;;;;;;13.10;5.85;;;;;;;;;;5067757;28;20114;-77
2023/10/13 07:49:40;;;;;;;14.50;5.75;;;;;;;;;;5071932;28;20044;-77
2023/10/13 07:54:56;;;;;;;14.73;5.82;;;;;;;;;;5072657;28;20101;-77
2023/10/13 07:57:31;;;;;;;12.25;5.75;;;;;;;;;;5081605;28;20041;-77
2023/10/13 08:00:10;;;;;;;15.77;5.47;;;;;;;;;;5058540;28;20117;-77
2023/10/13 08:02:49;;;;;;;14.35;6.35;;;;;;;;;;5075261;28;20063;-77
2023/10/13 08:05:39;;;;;;;14.35;6.25;;;;;;;;;;5074719;28;20040;-77
2023/10/13 08:08:14;;;;;;;14.38;6.00;;;;;;;;;;5066310;28;20078;-77
2023/10/13 08:10:41;;;;;;;12.35;6.28;;;;;;;;;;5055205;28;20044;-77
2023/10/13 08:13:12;;;;;;;16.13;6.03;;;;;;;;;;5072473;28;20048;-77
2023/10/13 08:15:46;;;;;;;13.32;6.97;;;;;;;;;;5072818;28;20048;-77
2023/10/13 08:18:19;;;;;;;14.43;7.32;;;;;;;;;;5074787;28;20052;-77
2023/10/13 08:20:47;;;;;;;14.48;7.07;;;;;;;;;;5075856;28;20147;-77
2023/10/13 08:23:13;;;;;;;15.45;7.55;;;;;;;;;;5059636;28;20090;-77
2023/10/13 08:31:22;;;;;;;19.50;8.27;;;;;;;;;;5045699;28;20040;-76
2023/10/13 08:33:48;;;;;;;20.90;7.47;;;;;;;;;;5055042;28;20076;-77
2023/10/13 08:36:27;;;;;;;18.02;8.40;;;;;;;;;;5054430;28;20052;-77
2023/10/13 08:38:55;;;;;;;17.55;7.85;;;;;;;;;;5053888;28;20379;-77
2023/10/13 08:43:53;;;;;;;17.55;7.70;;;;;;;;;;5055770;28;20049;-77
2023/10/13 08:46:29;;;;;;;21.70;8.23;;;;;;;;;;5036529;28;20052;-76
2023/10/13 08:49:06;;;;;;;17.65;7.32;;;;;;;;;;5057504;28;20040;-77
2023/10/13 08:51:43;;;;;;;18.33;7.38;;;;;;;;;;5054426;28;20057;-76
2023/10/13 08:54:19;;;;;;;19.67;7.68;;;;;;;;;;5047160;28;20120;-77
2023/10/13 08:57:03;;;;;;;16.52;7.85;;;;;;;;;;5055650;28;20053;-76
2023/10/13 08:59:38;;;;;;;17.13;7.75;;;;;;;;;;5040624;28;20486;-77
2023/10/13 09:02:19;;;;;;;17.55;8.15;;;;;;;;;;5055314;28;20071;-76
2023/10/13 09:04:45;;;;;;;17.37;8.20;;;;;;;;;;5055430;28;20060;-76
2023/10/13 09:07:21;;;;;;;20.50;8.38;;;;;;;;;;5053733;28;20107;-76
2023/10/13 09:15:17;;;;;;;16.75;8.00;;;;;;;;;;5054586;28;20053;-76
2023/10/13 09:17:48;;;;;;;16.85;7.15;;;;;;;;;;5039817;28;20041;-76
2023/10/13 09:20:42;;;;;;;19.92;7.65;;;;;;;;;;5044239;28;20052;-77
2023/10/13 09:23:19;;;;;;;16.85;7.40;;;;;;;;;;5071158;28;20052;-77
2023/10/13 09:25:58;;;;;;;14.75;7.45;;;;;;;;;;5075424;28;20382;-76
2023/10/13 09:28:27;;;;;;;14.82;6.97;;;;;;;;;;5074874;28;20219;-77
2023/10/13 09:30:56;;;;;;;15.10;7.32;;;;;;;;;;5072836;28;20045;-76
2023/10/13 09:33:32;;;;;;;17.55;7.32;;;;;;;;;;5074041;28;20060;-76
2023/10/13 09:36:04;;;;;;;13.82;6.90;;;;;;;;;;5072925;28;20486;-77
2023/10/13 09:38:32;;;;;;;18.17;7.18;;;;;;;;;;5085817;28;20067;-77
2023/10/13 09:41:01;;;;;;;16.48;6.50;;;;;;;;;;5075374;28;20041;-77
2023/10/13 09:43:30;;;;;;;15.75;7.07;;;;;;;;;;5073128;28;20044;-77
2023/10/13 09:46:02;;;;;;;17.35;7.13;;;;;;;;;;5073703;28;20041;-77
2023/10/13 09:48:46;;;;;;;17.42;7.13;;;;;;;;;;5073165;28;20428;-76
2023/10/13 09:51:19;;;;;;;14.60;6.95;;;;;;;;;;5071886;28;20059;-77
2023/10/13 09:53:49;;;;;;;19.27;7.18;;;;;;;;;;5074680;28;20049;-77
2023/10/13 09:56:27;;;;;;;17.13;7.45;;;;;;;;;;5074889;28;20054;-76
2023/10/13 09:59:08;;;;;;;15.95;6.72;;;;;;;;;;5073927;28;20534;-77
2023/10/13 10:01:37;;;;;;;16.08;6.57;;;;;;;;;;5073982;28;20048;-77
2023/10/13 10:04:23;;;;;;;16.85;6.80;;;;;;;;;;5072725;28;20481;-77
2023/10/13 10:06:52;;;;;;;16.55;7.30;;;;;;;;;;5071640;28;20107;-77
2023/10/13 10:09:21;;;;;;;16.08;6.70;;;;;;;;;;5072999;28;20040;-77
2023/10/13 10:11:47;;;;;;;19.35;6.88;;;;;;;;;;5071416;28;20098;-76
2023/10/13 10:14:19;;;;;;;15.85;6.80;;;;;;;;;;5074306;28;20036;-77
2023/10/13 10:16:46;;;;;;;21.48;7.07;;;;;;;;;;5072400;28;20044;-77
2023/10/13 10:19:13;;;;;;;15.57;6.80;;;;;;;;;;5074170;28;20044;-77
2023/10/13 10:21:40;;;;;;;20.50;7.28;;;;;;;;;;5073600;28;20059;-77
2023/10/13 10:24:29;;;;;;;17.05;7.00;;;;;;;;;;5074328;28;20040;-77
2023/10/13 10:26:55;;;;;;;19.00;7.05;;;;;;;;;;5073563;28;20052;-77
2023/10/13 10:29:21;;;;;;;19.38;7.28;;;;;;;;;;5074293;28;20055;-76
2023/10/13 10:31:47;;;;;;;19.35;6.60;;;;;;;;;;5071401;28;20186;-77
2023/10/13 10:34:20;;;;;;;14.45;6.15;;;;;;;;;;5072092;28;20049;-77
2023/10/13 10:36:47;;;;;;;16.83;6.63;;;;;;;;;;5074101;28;20048;-77
2023/10/13 10:39:13;;;;;;;16.63;7.13;;;;;;;;;;5072969;28;20583;-77
2023/10/13 10:42:02;;;;;;;21.13;7.13;;;;;;;;;;5072803;28;20057;-77
2023/10/13 10:44:34;;;;;;;15.15;6.28;;;;;;;;;;5071395;28;20052;-77
2023/10/13 10:47:31;;;;;;;16.73;5.97;;;;;;;;;;5071649;28;20045;-77
2023/10/13 10:50:06;;;;;;;19.92;6.65;;;;;;;;;;5072708;28;20056;-76
2023/10/13 10:52:37;;;;;;;13.45;6.07;;;;;;;;;;5069319;28;20067;-77
2023/10/13 10:55:07;;;;;;;17.38;5.82;;;;;;;;;;5073716;28;20041;-77
2023/10/13 10:57:37;;;;;;;19.25;6.82;;;;;;;;;;5073500;28;20052;-79
2023/10/13 11:00:15;;;;;;;13.35;6.13;;;;;;;;;;5072364;28;20552;-77
2023/10/13 11:02:41;;;;;;;20.75;6.10;;;;;;;;;;5073053;28;20052;-77
2023/10/13 11:05:10;;;;;;;13.93;6.10;;;;;;;;;;5072648;28;20055;-77
2023/10/13 11:07:36;;;;;;;21.70;6.80;;;;;;;;;;5072018;28;20083;-77
2023/10/13 11:10:17;;;;;;;17.55;6.25;;;;;;;;;;5073263;28;20400;-77
2023/10/13 11:12:53;;;;;;;17.63;6.73;;;;;;;;;;5073495;28;20044;-77
2023/10/13 11:15:22;;;;;;;19.15;6.53;;;;;;;;;;5072479;28;20037;-77
2023/10/13 11:17:54;;;;;;;20.58;6.43;;;;;;;;;;5071384;28;20072;-77
2023/10/13 11:20:54;;;;;;;22.52;6.57;;;;;;;;;;5074754;28;20060;-78
2023/10/13 11:23:13;;;;;;;20.67;7.15;;;;;;;;;;5069547;28;20121;-78
2023/10/13 11:25:39;;;;;;;18.92;6.47;;;;;;;;;;5072448;28;20185;-77
2023/10/13 11:28:27;;;;;;;19.85;6.90;;;;;;;;;;5073158;28;20055;-78
2023/10/13 11:30:58;;;;;;;18.02;5.95;;;;;;;;;;5072737;28;20401;-77
2023/10/13 11:33:25;;;;;;;15.80;6.45;;;;;;;;;;5072662;28;20048;-78
2023/10/13 11:43:35;;;;;;;18.05;6.78;;;;;;;;;;5069101;28;20120;-77
2023/10/13 11:48:36;;;;;;;18.95;6.55;;;;;;;;;;5072220;28;20047;-78
2023/10/13 11:51:08;;;;;;;19.05;6.90;;;;;;;;;;5072352;28;20493;-77
2023/10/13 11:53:37;;;;;;;19.42;6.55;;;;;;;;;;5075630;28;20055;-77
2023/10/13 11:56:08;;;;;;;18.98;6.40;;;;;;;;;;5069294;28;20040;-77
2023/10/13 11:58:34;;;;;;;;;;;;;;;;;;5085729;28;20436;-77
2023/10/13 12:06:35;;;;;;;18.05;7.28;;;;;;;;;;5071890;28;20127;-78
2023/10/13 12:09:18;;;;;;;21.77;7.40;;;;;;;;;;5078286;28;20044;-78
2023/10/13 12:11:50;;;;;;;18.52;6.60;;;;;;;;;;5074099;28;20053;-78
2023/10/13 12:14:17;;;;;;;18.48;6.63;;;;;;;;;;5073125;28;20052;-78
2023/10/13 12:17:04;;;;;;;18.52;6.60;;;;;;;;;;5072166;28;20057;-78
2023/10/13 12:19:30;;;;;;;19.95;6.40;;;;;;;;;;5070214;28;20127;-78
2023/10/13 12:22:03;;;;;;;18.77;6.80;;;;;;;;;;5067949;28;20045;-78
2023/10/13 12:27:01;;;;;;;19.15;6.95;;;;;;;;;;5071588;28;20076;-78
2023/10/13 12:29:34;;;;;;;16.13;6.72;;;;;;;;;;5082839;28;20048;-78
2023/10/13 12:32:11;;;;;;;20.65;6.60;;;;;;;;;;5073090;28;20048;-78
2023/10/13 12:34:57;;;;;;;18.98;7.50;;;;;;;;;;5072058;28;20382;-78
2023/10/13 12:51:20;;;;;;;19.95;7.88;;;;;;;;;;5072528;28;20045;-78
2023/10/13 12:53:50;;;;;;;22.80;7.20;;;;;;;;;;5065418;28;20041;-77
2023/10/13 12:56:17;;;;;;;18.83;7.20;;;;;;;;;;5065259;28;20196;-78
2023/10/13 12:58:53;;;;;;;18.70;6.50;;;;;;;;;;5080451;28;20402;-77
2023/10/13 13:01:24;;;;;;;17.75;6.82;;;;;;;;;;5084184;28;20101;-78
2023/10/13 13:03:50;;;;;;;18.42;6.50;;;;;;;;;;5072602;28;20048;-78
2023/10/13 13:06:17;;;;;;;18.70;6.82;;;;;;;;;;5079114;28;20040;-78
2023/10/13 13:08:44;;;;;;;16.88;6.97;;;;;;;;;;5095243;28;20055;-78
2023/10/13 13:11:11;;;;;;;20.90;6.75;;;;;;;;;;5077419;28;20056;-78
2023/10/13 13:13:37;;;;;;;20.35;7.10;;;;;;;;;;5097126;28;20094;-77
2023/10/13 13:16:03;;;;;;;19.60;6.75;;;;;;;;;;5077680;28;20044;-78
2023/10/13 13:18:30;;;;;;;17.63;6.45;;;;;;;;;;5084199;28;20049;-79
2023/10/13 13:20:56;;;;;;;22.65;7.40;;;;;;;;;;5074103;28;20049;-78
2023/10/13 13:23:25;;;;;;;17.48;6.55;;;;;;;;;;5068141;28;20412;-79
2023/10/13 13:25:52;;;;;;;15.77;7.03;;;;;;;;;;5064346;28;20761;-79
2023/10/13 13:28:18;;;;;;;19.55;7.22;;;;;;;;;;5076723;28;20359;-78
2023/10/13 13:30:50;;;;;;;16.63;6.78;;;;;;;;;;5070642;28;20037;-78
2023/10/13 13:33:16;;;;;;;17.52;6.70;;;;;;;;;;5075024;28;20048;-79
2023/10/13 13:35:48;;;;;;;19.00;6.65;;;;;;;;;;5076070;28;20045;-79
2023/10/13 13:38:29;;;;;;;17.23;6.18;;;;;;;;;;5077972;28;20071;-79
2023/10/13 13:40:55;;;;;;;16.37;6.63;;;;;;;;;;5076685;28;20363;-78
2023/10/13 13:43:31;;;;;;;18.75;6.63;;;;;;;;;;5076742;28;20663;-79
2023/10/13 13:46:00;;;;;;;16.08;6.97;;;;;;;;;;5076113;28;20170;-78
2023/10/13 13:48:27;;;;;;;17.17;6.65;;;;;;;;;;5077548;28;20040;-79
2023/10/13 13:51:03;;;;;;;15.98;7.03;;;;;;;;;;5089330;28;20055;-79
2023/10/13 13:53:32;;;;;;;18.55;6.93;;;;;;;;;;5083344;28;20055;-78
2023/10/13 13:56:00;;;;;;;19.60;7.40;;;;;;;;;;5078170;28;20048;-79
2023/10/13 13:58:26;;;;;;;18.48;7.15;;;;;;;;;;5077780;28;20442;-79
2023/10/13 14:00:58;;;;;;;20.75;7.30;;;;;;;;;;5076429;28;20409;-80
2023/10/13 14:03:33;;;;;;;21.35;7.85;;;;;;;;;;5077992;28;20048;-79
2023/10/13 14:05:59;;;;;;;19.13;7.60;;;;;;;;;;5075384;28;20489;-78
2023/10/13 14:08:27;;;;;;;16.10;6.68;;;;;;;;;;5074267;28;20416;-79
2023/10/13 14:13:50;;;;;;;19.48;7.00;;;;;;;;;;5055095;28;20049;-79
2023/10/13 14:16:17;;;;;;;19.92;8.00;;;;;;;;;;5055482;28;20056;-78
2023/10/13 14:18:44;;;;;;;21.25;7.40;;;;;;;;;;5086501;28;20111;-78
2023/10/13 14:21:10;;;;;;;17.58;7.65;;;;;;;;;;5083047;28;20072;-78
2023/10/13 14:23:38;;;;;;;21.95;8.30;;;;;;;;;;5092637;28;20051;-79
2023/10/13 14:26:09;;;;;;;21.88;7.82;;;;;;;;;;5093758;28;20120;-79
2023/10/13 14:28:35;;;;;;;19.13;7.43;;;;;;;;;;5095579;28;20461;-79
2023/10/13 14:31:12;;;;;;;15.52;7.80;;;;;;;;;;5088128;28;20040;-78
2023/10/13 14:33:39;;;;;;;18.63;7.28;;;;;;;;;;5074701;28;20044;-80
2023/10/13 14:36:05;;;;;;;22.45;7.82;;;;;;;;;;5073946;28;20044;-79
2023/10/13 14:38:31;;;;;;;19.92;7.78;;;;;;;;;;5073459;28;20123;-79
2023/10/13 14:40:58;;;;;;;18.40;7.63;;;;;;;;;;5074201;28;20110;-79
2023/10/13 14:43:27;;;;;;;23.40;8.48;;;;;;;;;;5071277;28;20090;-78
2023/10/13 14:45:56;;;;;;;19.05;8.10;;;;;;;;;;5075275;28;20048;-79
2023/10/13 14:48:25;;;;;;;21.63;7.60;;;;;;;;;;5073511;28;20036;-78
2023/10/13 14:50:51;;;;;;;23.05;7.97;;;;;;;;;;5075270;28;20053;-78
2023/10/13 14:53:19;;;;;;;22.65;8.02;;;;;;;;;;5070971;28;20489;-79
2023/10/13 14:55:45;;;;;;;17.33;7.50;;;;;;;;;;5074049;28;20056;-78
2023/10/13 14:58:16;;;;;;;19.30;7.82;;;;;;;;;;5072865;28;20097;-78
2023/10/13 15:00:45;;;;;;;19.35;7.85;;;;;;;;;;5069782;28;20049;-79
2023/10/13 15:03:11;;;;;;;22.40;8.57;;;;;;;;;;5068463;28;20105;-79
2023/10/13 15:05:43;;;;;;;19.65;8.23;;;;;;;;;;5072298;28;20037;-81
2023/10/13 15:08:10;;;;;;;21.40;8.02;;;;;;;;;;5057179;28;20359;-78
2023/10/13 15:10:39;;;;;;;20.35;8.20;;;;;;;;;;5064533;28;20128;-78
2023/10/13 15:13:05;;;;;;;22.05;8.60;;;;;;;;;;5063448;28;20575;-78
2023/10/13 15:15:32;;;;;;;21.35;8.60;;;;;;;;;;5073089;28;20185;-78
2023/10/13 15:17:58;;;;;;;23.75;9.30;;;;;;;;;;5076376;28;20040;-77
2023/10/13 15:20:24;;;;;;;25.08;9.35;;;;;;;;;;5065203;28;20448;-77
2023/10/13 15:22:59;;;;;;;22.13;9.30;;;;;;;;;;5079061;28;20040;-77
2023/10/13 15:25:29;;;;;;;23.08;8.80;;;;;;;;;;5061376;28;20102;-78
2023/10/13 15:28:05;;;;;;;19.25;9.10;;;;;;;;;;5072865;28;20443;-77
2023/10/13 15:30:56;;;;;;;22.58;9.40;;;;;;;;;;5086443;28;20044;-77
2023/10/13 15:33:23;;;;;;;18.35;8.55;;;;;;;;;;5081847;28;20052;-78
2023/10/13 15:35:51;;;;;;;20.40;8.68;;;;;;;;;;5073194;28;20561;-78
2023/10/13 15:38:19;;;;;;;20.60;8.82;;;;;;;;;;5073202;28;20055;-78
2023/10/13 15:40:45;;;;;;;21.70;8.90;;;;;;;;;;5070252;28;20508;-78
2023/10/13 15:43:12;;;;;;;21.75;8.82;;;;;;;;;;5069581;28;20044;-78
2023/10/13 15:45:42;;;;;;;18.70;8.55;;;;;;;;;;5073182;28;20044;-78
2023/10/13 15:48:11;;;;;;;22.17;9.15;;;;;;;;;;5076675;28;20082;-78
2023/10/13 15:50:40;;;;;;;18.90;7.95;;;;;;;;;;5092998;28;20366;-78
2023/10/13 15:53:07;;;;;;;20.00;8.73;;;;;;;;;;5093416;28;20072;-77
2023/10/13 15:55:37;;;;;;;18.23;8.75;;;;;;;;;;5068120;28;20048;-78
2023/10/13 15:58:07;;;;;;;18.88;9.00;;;;;;;;;;5070599;28;20382;-79
2023/10/13 16:00:35;;;;;;;18.42;8.65;;;;;;;;;;5087165;28;20052;-78
2023/10/13 16:03:01;;;;;;;23.42;10.00;;;;;;;;;;5072823;28;20501;-78
2023/10/13 16:05:34;;;;;;;21.42;9.75;;;;;;;;;;5072744;28;20097;-79
2023/10/13 16:08:00;;;;;;;19.80;8.52;;;;;;;;;;5073332;28;20037;-77
2023/10/13 16:10:29;;;;;;;19.45;8.55;;;;;;;;;;5071850;28;20181;-78
2023/10/13 16:12:58;;;;;;;16.88;8.52;;;;;;;;;;5072947;28;20417;-78
2023/10/13 16:15:24;;;;;;;18.80;8.50;;;;;;;;;;5072871;28;20371;-78
2023/10/13 16:17:53;;;;;;;18.70;7.30;;;;;;;;;;5093416;28;20048;-78
2023/10/13 16:20:20;;;;;;;15.60;7.15;;;;;;;;;;5086652;28;20406;-78
2023/10/13 16:22:47;;;;;;;15.32;7.10;;;;;;;;;;5072929;28;20060;-78
2023/10/13 16:25:15;;;;;;;14.48;6.22;;;;;;;;;;5072268;28;20394;-78
2023/10/13 16:27:45;;;;;;;14.60;6.20;;;;;;;;;;5054613;28;20508;-77
2023/10/13 16:30:15;;;;;;;12.17;5.90;;;;;;;;;;5071723;28;20105;-78
2023/10/13 16:32:47;;;;;;;17.70;6.35;;;;;;;;;;5072698;28;20139;-77
2023/10/13 16:35:17;;;;;;;16.85;6.70;;;;;;;;;;5070387;28;20166;-77
2023/10/13 16:37:46;;;;;;;15.93;6.53;;;;;;;;;;5072484;28;20057;-77
2023/10/13 16:40:20;;;;;;;16.17;7.32;;;;;;;;;;5068583;28;20047;-77
2023/10/13 16:42:46;;;;;;;19.30;6.90;;;;;;;;;;5077103;28;20063;-77
2023/10/13 16:45:19;;;;;;;19.40;8.20;;;;;;;;;;5088915;28;20070;-77
2023/10/13 16:47:45;;;;;;;18.13;7.88;;;;;;;;;;5075993;28;20144;-77
2023/10/13 16:50:11;;;;;;;16.73;8.00;;;;;;;;;;5076312;28;20513;-77
2023/10/13 16:52:39;;;;;;;20.50;8.57;;;;;;;;;;5076127;28;20051;-78
2023/10/13 16:55:07;;;;;;;19.30;8.38;;;;;;;;;;5076333;28;20051;-77
2023/10/13 16:57:33;;;;;;;18.48;8.30;;;;;;;;;;5072491;28;20402;-78
2023/10/13 17:00:03;;;;;;;22.67;8.50;;;;;;;;;;5073786;28;20052;-78
2023/10/13 17:02:29;;;;;;;21.10;9.15;;;;;;;;;;5076512;28;20493;-77
2023/10/13 17:04:57;;;;;;;18.20;7.85;;;;;;;;;;5068505;28;20040;-78
2023/10/13 17:07:24;;;;;;;20.73;8.20;;;;;;;;;;5071834;28;20394;-77
2023/10/13 17:09:50;;;;;;;18.75;8.35;;;;;;;;;;5073839;28;20136;-78
2023/10/13 17:12:16;;;;;;;21.70;8.63;;;;;;;;;;5079317;28;20047;-79
2023/10/13 17:14:43;;;;;;;17.75;8.00;;;;;;;;;;5076483;28;20049;-78
2023/10/13 17:17:09;;;;;;;20.15;8.20;;;;;;;;;;5077920;28;20044;-78
2023/10/13 17:19:36;;;;;;;22.63;7.60;;;;;;;;;;5072226;28;20055;-79
2023/10/13 17:22:03;;;;;;;18.20;7.28;;;;;;;;;;5071962;28;20417;-78
2023/10/13 17:24:31;;;;;;;19.45;7.35;;;;;;;;;;5079526;28;20135;-78
2023/10/13 17:27:00;;;;;;;16.63;6.90;;;;;;;;;;5094615;28;20413;-78
2023/10/13 17:29:28;;;;;;;14.52;6.93;;;;;;;;;;5076208;28;20048;-78
2023/10/13 17:31:55;;;;;;;17.05;6.22;;;;;;;;;;5078226;28;20078;-78
2023/10/13 17:34:21;;;;;;;15.35;5.97;;;;;;;;;;5066855;28;20065;-78